createdAt,value
2022-09-15T00:01:00.926Z,19.13
2022-09-15T00:04:03.823Z,19.09
2022-09-15T00:07:06.511Z,19.06
2022-09-15T00:10:10.367Z,19.05
2022-09-15T00:13:12.846Z,18.94
2022-09-15T00:16:17.325Z,19.01
2022-09-15T00:19:19.906Z,19.00
2022-09-15T00:22:24.007Z,18.97
2022-09-15T00:25:27.248Z,19.00
2022-09-15T00:28:31.614Z,18.97
2022-09-15T00:31:34.488Z,18.93
2022-09-15T00:34:37.496Z,18.91
2022-09-15T00:37:40.167Z,18.87
2022-09-15T00:40:50.785Z,18.89
2022-09-15T00:43:53.632Z,18.89
2022-09-15T00:47:18.126Z,18.90
2022-09-15T00:50:20.956Z,18.85
2022-09-15T00:53:25.037Z,18.79
2022-09-15T00:56:28.797Z,18.77
2022-09-15T00:59:33.428Z,18.85
2022-09-15T01:02:36.697Z,19.00
2022-09-15T01:05:42.194Z,19.13
2022-09-15T01:08:47.971Z,19.13
2022-09-15T01:11:53.308Z,19.31
2022-09-15T01:14:55.667Z,19.52
2022-09-15T01:18:17.419Z,19.67
2022-09-15T01:21:24.095Z,19.77
2022-09-15T01:24:27.061Z,19.71
2022-09-15T01:27:48.350Z,19.83
2022-09-15T01:31:20.994Z,19.79
2022-09-15T01:34:26.236Z,19.80
2022-09-15T01:37:31.411Z,19.71
2022-09-15T01:40:39.285Z,19.70
2022-09-15T01:43:55.035Z,19.67
2022-09-15T01:47:03.293Z,19.65
2022-09-15T01:50:09.572Z,19.67
2022-09-15T01:53:15.231Z,19.62
2022-09-15T01:56:18.388Z,19.57
2022-09-15T01:59:20.839Z,19.59
2022-09-15T02:02:31.986Z,19.52
2022-09-15T02:05:35.356Z,19.49
2022-09-15T02:08:40.719Z,19.48
2022-09-15T02:11:52.207Z,19.41
2022-09-15T02:15:08.638Z,19.46
2022-09-15T02:18:14.176Z,19.37
2022-09-15T02:21:21.276Z,19.29
2022-09-15T02:24:30.355Z,19.23
2022-09-15T02:27:37.480Z,19.16
2022-09-15T02:30:42.034Z,19.17
2022-09-15T02:33:47.345Z,19.11
2022-09-15T02:36:53.155Z,19.04
2022-09-15T02:39:58.075Z,19.04
2022-09-15T02:43:02.290Z,19.07
2022-09-15T02:46:04.964Z,18.99
2022-09-15T02:49:07.863Z,19.00
2022-09-15T02:52:10.759Z,18.92
2022-09-15T02:55:13.945Z,19.00
2022-09-15T02:58:19.257Z,19.12
2022-09-15T03:01:26.899Z,19.12
2022-09-15T03:04:29.687Z,19.25
2022-09-15T03:07:32.772Z,19.29
2022-09-15T03:10:35.381Z,19.37
2022-09-15T03:13:38.317Z,19.52
2022-09-15T03:16:41.160Z,19.52
2022-09-15T03:19:45.133Z,19.41
2022-09-15T03:22:48.641Z,19.36
2022-09-15T03:25:51.450Z,19.47
2022-09-15T03:28:54.028Z,19.56
2022-09-15T03:31:57.263Z,19.47
2022-09-15T03:35:00.031Z,19.47
2022-09-15T03:38:03.264Z,19.43
2022-09-15T03:41:10.088Z,19.46
2022-09-15T03:44:12.792Z,19.40
2022-09-15T03:47:15.635Z,19.41
2022-09-15T03:50:19.585Z,19.40
2022-09-15T03:53:22.704Z,19.42
2022-09-15T03:56:33.542Z,19.36
2022-09-15T03:59:36.090Z,19.31
2022-09-15T04:02:38.871Z,19.32
2022-09-15T04:05:42.230Z,19.32
2022-09-15T04:08:44.976Z,19.33
2022-09-15T04:11:47.980Z,19.28
2022-09-15T04:14:50.358Z,19.24
2022-09-15T04:17:53.461Z,19.29
2022-09-15T04:21:03.333Z,19.46
2022-09-15T04:24:06.469Z,19.51
2022-09-15T04:27:09.122Z,19.57
2022-09-15T04:30:12.636Z,19.48
2022-09-15T04:33:15.192Z,19.52
2022-09-15T04:36:19.847Z,19.40
2022-09-15T04:39:22.509Z,19.41
2022-09-15T04:42:25.820Z,19.44
2022-09-15T04:45:28.726Z,19.59
2022-09-15T04:48:32.115Z,19.67
2022-09-15T04:51:34.720Z,19.76
2022-09-15T04:54:37.442Z,19.90
2022-09-15T04:57:40.001Z,19.97
2022-09-15T05:00:43.570Z,20.03
2022-09-15T05:03:46.517Z,20.10
2022-09-15T05:06:49.234Z,20.18
2022-09-15T05:09:52.180Z,20.23
2022-09-15T05:12:55.071Z,20.33
2022-09-15T05:16:03.671Z,20.34
2022-09-15T05:19:06.915Z,20.40
2022-09-15T05:22:09.426Z,20.42
2022-09-15T05:25:12.587Z,20.43
2022-09-15T05:28:15.325Z,20.64
2022-09-15T05:31:19.563Z,20.71
2022-09-15T05:34:22.347Z,20.80
2022-09-15T05:37:25.622Z,20.64
2022-09-15T05:40:28.306Z,20.57
2022-09-15T05:43:32.175Z,20.39
2022-09-15T05:46:34.726Z,20.35
2022-09-15T05:49:37.652Z,20.38
2022-09-15T05:52:40.254Z,20.40
2022-09-15T05:55:43.082Z,20.48
2022-09-15T05:58:46.913Z,20.51
2022-09-15T06:01:49.730Z,20.49
2022-09-15T06:04:52.726Z,20.60
2022-09-15T06:07:56.115Z,20.74
2022-09-15T06:11:19.807Z,20.97
2022-09-15T06:14:22.543Z,21.24
2022-09-15T06:17:25.474Z,21.60
2022-09-15T06:20:28.589Z,21.59
2022-09-15T06:23:31.467Z,21.64
2022-09-15T06:26:34.562Z,21.56
2022-09-15T06:29:37.304Z,21.51
2022-09-15T06:32:40.083Z,21.64
2022-09-15T06:35:43.448Z,22.01
2022-09-15T06:38:46.496Z,22.22
2022-09-15T06:42:02.156Z,22.35
2022-09-15T06:45:06.050Z,22.59
2022-09-15T06:48:23.849Z,22.70
2022-09-15T06:51:31.357Z,22.67
2022-09-15T06:54:34.737Z,22.46
2022-09-15T06:57:37.191Z,22.45
2022-09-15T07:00:40.067Z,22.47
2022-09-15T07:03:43.566Z,22.55
2022-09-15T07:06:46.293Z,22.67
2022-09-15T07:09:49.305Z,22.90
2022-09-15T07:12:52.049Z,23.10
2022-09-15T07:15:58.869Z,23.03
2022-09-15T07:19:03.683Z,22.96
2022-09-15T07:22:06.353Z,23.44
2022-09-15T07:25:09.350Z,24.58
2022-09-15T07:28:12.493Z,25.57
2022-09-15T07:31:16.932Z,25.57
2022-09-15T07:34:19.575Z,26.75
2022-09-15T07:37:22.293Z,26.52
2022-09-15T07:40:26.280Z,26.04
2022-09-15T07:43:29.476Z,25.67
2022-09-15T07:46:32.824Z,25.43
2022-09-15T07:49:35.612Z,25.21
2022-09-15T07:52:38.172Z,25.12
2022-09-15T07:55:41.066Z,25.23
2022-09-15T07:58:43.672Z,25.11
2022-09-15T08:01:46.790Z,25.50
2022-09-15T08:04:49.732Z,25.85
2022-09-15T08:07:52.586Z,26.12
2022-09-15T08:10:55.835Z,26.22
2022-09-15T08:14:00.371Z,26.30
2022-09-15T08:17:08.144Z,26.35
2022-09-15T08:20:13.488Z,26.17
2022-09-15T08:23:17.406Z,25.94
2022-09-15T08:26:20.202Z,25.98
2022-09-15T08:29:23.169Z,25.81
2022-09-15T08:32:25.893Z,25.84
2022-09-15T08:35:29.723Z,25.93
2022-09-15T08:38:32.676Z,25.77
2022-09-15T08:41:37.932Z,26.15
2022-09-15T08:44:43.979Z,25.95
2022-09-15T08:47:48.228Z,26.03
2022-09-15T08:50:52.438Z,25.92
2022-09-15T08:53:58.503Z,26.06
2022-09-15T08:57:01.600Z,26.30
2022-09-15T09:00:04.769Z,26.30
2022-09-15T09:03:26.701Z,26.43
2022-09-15T09:06:32.889Z,26.33
2022-09-15T09:09:35.267Z,26.57
2022-09-15T09:12:50.146Z,26.90
2022-09-15T09:16:03.894Z,27.02
2022-09-15T09:19:28.931Z,26.98
2022-09-15T09:22:35.919Z,26.85
2022-09-15T09:25:39.585Z,26.72
2022-09-15T09:28:46.289Z,26.57
2022-09-15T09:31:50.690Z,26.55
2022-09-15T09:35:15.555Z,26.74
2022-09-15T09:38:21.666Z,26.66
2022-09-15T09:41:35.777Z,26.34
2022-09-15T09:44:39.533Z,26.56
2022-09-15T09:47:43.004Z,26.79
2022-09-15T09:50:47.559Z,27.04
2022-09-15T09:53:53.548Z,27.19
2022-09-15T09:56:57.507Z,27.35
2022-09-15T10:00:00.021Z,27.37
2022-09-15T10:03:12.001Z,27.24
2022-09-15T10:06:24.842Z,27.47
2022-09-15T10:09:32.545Z,27.62
2022-09-15T10:12:40.684Z,27.64
2022-09-15T10:15:43.617Z,27.60
2022-09-15T10:18:48.994Z,27.40
2022-09-15T10:21:56.174Z,27.19
2022-09-15T10:25:00.596Z,27.17
2022-09-15T10:28:26.446Z,27.30
2022-09-15T10:31:31.551Z,27.53
2022-09-15T10:34:36.211Z,27.93
2022-09-15T10:37:55.873Z,28.34
2022-09-15T10:41:05.137Z,28.59
2022-09-15T10:44:23.111Z,28.60
2022-09-15T10:47:45.346Z,28.46
2022-09-15T10:51:07.727Z,28.45
2022-09-15T10:54:34.700Z,28.52
2022-09-15T10:58:01.952Z,28.74
2022-09-15T11:01:08.133Z,28.55
2022-09-15T11:04:11.440Z,28.37
2022-09-15T11:07:17.058Z,28.58
2022-09-15T11:10:25.869Z,28.56
2022-09-15T11:13:28.626Z,28.54
2022-09-15T11:16:34.634Z,28.27
2022-09-15T11:19:46.633Z,28.26
2022-09-15T11:23:08.209Z,28.18
2022-09-15T11:26:15.478Z,27.82
2022-09-15T11:29:36.720Z,27.65
2022-09-15T11:32:39.395Z,27.18
2022-09-15T11:35:45.341Z,26.90
2022-09-15T11:39:10.023Z,26.51
2022-09-15T11:42:22.561Z,26.20
2022-09-15T11:45:26.768Z,25.98
2022-09-15T11:48:41.041Z,25.85
2022-09-15T11:51:50.678Z,25.84
2022-09-15T11:55:05.040Z,25.99
2022-09-15T11:58:26.173Z,26.07
2022-09-15T12:01:32.524Z,26.49
2022-09-15T12:04:39.147Z,26.76
2022-09-15T12:07:46.015Z,27.01
2022-09-15T12:10:52.278Z,27.22
2022-09-15T12:13:55.734Z,27.29
2022-09-15T12:16:59.140Z,27.00
2022-09-15T12:20:05.681Z,26.69
2022-09-15T12:23:12.084Z,26.22
2022-09-15T12:26:19.390Z,25.79
2022-09-15T12:29:22.096Z,25.54
2022-09-15T12:32:28.756Z,25.23
2022-09-15T12:35:33.541Z,24.92
2022-09-15T12:38:36.155Z,24.35
2022-09-15T12:41:45.758Z,24.09
2022-09-15T12:44:48.447Z,23.79
2022-09-15T12:47:51.220Z,23.43
2022-09-15T12:50:55.285Z,23.04
2022-09-15T12:54:00.963Z,22.70
2022-09-15T12:57:04.755Z,22.42
2022-09-15T13:00:16.896Z,22.25
2022-09-15T13:03:28.874Z,21.90
2022-09-15T13:06:34.201Z,21.42
2022-09-15T13:09:44.230Z,20.92
2022-09-15T13:12:53.605Z,20.66
2022-09-15T13:15:56.954Z,20.44
2022-09-15T13:19:41.135Z,20.41
2022-09-15T13:22:45.567Z,20.17
2022-09-15T13:25:48.353Z,20.14
2022-09-15T13:28:55.579Z,20.06
2022-09-15T13:32:19.469Z,19.84
2022-09-15T13:35:31.076Z,19.57
2022-09-15T13:38:33.796Z,19.13
2022-09-15T13:41:36.489Z,18.84
2022-09-15T13:44:54.476Z,18.61
2022-09-15T13:48:11.464Z,18.44
2022-09-15T13:51:23.711Z,18.38
2022-09-15T13:54:26.119Z,18.35
2022-09-15T14:00:53.896Z,18.16
2022-09-15T14:04:03.214Z,18.07
2022-09-15T14:07:05.494Z,17.89
2022-09-15T14:10:18.911Z,17.95
2022-09-15T14:13:22.560Z,17.95
2022-09-15T14:16:30.448Z,17.92
2022-09-15T14:19:34.771Z,17.84
2022-09-15T14:22:40.658Z,17.85
2022-09-15T14:25:45.390Z,17.86
2022-09-15T14:28:49.928Z,17.93
2022-09-15T14:31:53.231Z,17.87
2022-09-15T14:34:58.959Z,17.78
2022-09-15T14:38:01.287Z,17.77
2022-09-15T14:41:05.407Z,17.77
2022-09-15T14:48:01.110Z,17.70
2022-09-15T14:51:12.247Z,17.76
2022-09-15T14:54:19.068Z,17.76
2022-09-15T14:57:26.526Z,17.75
2022-09-15T15:00:55.981Z,17.82
2022-09-15T15:04:02.456Z,17.80
2022-09-15T15:07:05.100Z,17.86
2022-09-15T15:10:14.662Z,17.90
2022-09-15T15:13:17.740Z,17.94
2022-09-15T15:16:24.177Z,18.05
2022-09-15T15:19:34.623Z,18.02
2022-09-15T15:22:38.418Z,18.05
2022-09-15T15:25:41.900Z,18.13
2022-09-15T15:28:44.157Z,18.05
2022-09-15T15:31:46.742Z,18.06
2022-09-15T15:34:58.518Z,17.96
2022-09-15T15:38:07.135Z,17.95
2022-09-15T15:41:17.984Z,18.01
2022-09-15T15:44:20.581Z,18.04
2022-09-15T15:47:24.521Z,18.07
2022-09-15T15:50:28.376Z,18.14
2022-09-15T15:53:30.944Z,18.18
2022-09-15T15:56:37.671Z,18.26
2022-09-15T15:59:40.274Z,18.31
2022-09-15T16:02:43.647Z,18.34
2022-09-15T16:05:48.051Z,18.40
2022-09-15T16:08:51.088Z,18.40
2022-09-15T16:11:54.132Z,18.45
2022-09-15T16:14:56.571Z,18.47
2022-09-15T16:17:59.611Z,18.50
2022-09-15T16:21:01.931Z,18.45
2022-09-15T16:24:04.944Z,18.39
2022-09-15T16:27:13.711Z,18.34
2022-09-15T16:30:17.534Z,18.31
2022-09-15T16:33:20.096Z,18.29
2022-09-15T16:36:22.579Z,18.26
2022-09-15T16:39:25.826Z,18.21
2022-09-15T16:42:28.407Z,18.16
2022-09-15T16:45:38.066Z,18.19
2022-09-15T16:48:44.151Z,18.16
2022-09-15T16:51:46.415Z,18.11
2022-09-15T16:54:52.192Z,18.06
2022-09-15T16:57:54.535Z,17.98
2022-09-15T17:00:57.803Z,17.91
2022-09-15T17:04:01.128Z,17.88
2022-09-15T17:07:03.651Z,17.81
2022-09-15T17:10:06.308Z,17.78
2022-09-15T17:13:11.604Z,17.67
2022-09-15T17:16:15.390Z,17.58
2022-09-15T17:19:17.995Z,17.56
2022-09-15T17:22:20.286Z,17.56
2022-09-15T17:25:37.033Z,17.56
2022-09-15T17:28:40.820Z,17.54
2022-09-15T17:31:43.521Z,17.51
2022-09-15T17:34:46.343Z,17.44
2022-09-15T17:37:49.299Z,17.46
2022-09-15T17:40:55.458Z,17.39
2022-09-15T17:43:58.308Z,17.36
2022-09-15T17:47:00.598Z,17.27
2022-09-15T17:50:03.157Z,17.21
2022-09-15T17:53:12.655Z,17.18
2022-09-15T17:56:15.471Z,17.15
2022-09-15T17:59:18.211Z,17.14
2022-09-15T18:02:21.442Z,17.13
2022-09-15T18:05:28.829Z,17.10
2022-09-15T18:08:32.915Z,17.10
2022-09-15T18:11:35.467Z,17.10
2022-09-15T18:14:38.272Z,17.06
2022-09-15T18:17:41.053Z,17.07
2022-09-15T18:20:44.157Z,17.06
2022-09-15T18:23:46.789Z,17.20
2022-09-15T18:26:49.108Z,17.15
2022-09-15T18:29:52.137Z,17.08
2022-09-15T18:32:54.425Z,17.08
2022-09-15T18:35:58.945Z,17.15
2022-09-15T18:39:01.503Z,17.12
2022-09-15T18:42:04.307Z,17.07
2022-09-15T18:45:09.351Z,17.05
2022-09-15T18:48:13.266Z,17.04
2022-09-15T18:51:23.804Z,17.01
2022-09-15T18:54:26.546Z,17.06
2022-09-15T18:57:28.964Z,17.04
2022-09-15T19:00:32.114Z,17.02
2022-09-15T19:03:34.683Z,16.99
2022-09-15T19:06:37.617Z,16.97
2022-09-15T19:09:40.157Z,16.96
2022-09-15T19:12:43.364Z,16.96
2022-09-15T19:15:48.148Z,16.95
2022-09-15T19:18:52.135Z,17.02
2022-09-15T19:21:54.737Z,17.05
2022-09-15T19:24:57.267Z,17.15
2022-09-15T19:27:59.498Z,17.07
2022-09-15T19:31:02.324Z,17.08
2022-09-15T19:34:04.866Z,17.12
2022-09-15T19:37:12.148Z,17.08
2022-09-15T19:40:18.407Z,17.11
2022-09-15T19:43:20.981Z,17.00
2022-09-15T19:46:24.297Z,17.02
2022-09-15T19:49:27.117Z,16.93
2022-09-15T19:52:31.073Z,16.97
2022-09-15T19:55:34.327Z,16.90
2022-09-15T19:58:36.707Z,16.88
2022-09-15T20:01:39.402Z,16.97
2022-09-15T20:04:42.187Z,16.99
2022-09-15T20:07:46.963Z,16.95
2022-09-15T20:10:50.187Z,16.96
2022-09-15T20:13:53.136Z,16.90
2022-09-15T20:16:58.743Z,16.88
2022-09-15T20:20:03.398Z,16.88
2022-09-15T20:23:06.096Z,16.83
2022-09-15T20:26:10.713Z,16.81
2022-09-15T20:29:13.697Z,16.93
2022-09-15T20:32:15.954Z,16.85
2022-09-15T20:35:18.496Z,16.93
2022-09-15T20:38:21.102Z,16.84
2022-09-15T20:41:25.435Z,16.78
2022-09-15T20:44:27.724Z,16.85
2022-09-15T20:47:30.229Z,16.80
2022-09-15T20:50:33.059Z,16.84
2022-09-15T20:53:35.908Z,16.83
2022-09-15T20:56:38.276Z,16.81
2022-09-15T20:59:40.957Z,16.86
2022-09-15T21:02:43.393Z,16.82
2022-09-15T21:05:46.034Z,16.90
2022-09-15T21:08:49.038Z,16.90
2022-09-15T21:11:53.607Z,16.94
2022-09-15T21:14:57.878Z,17.05
2022-09-15T21:18:03.740Z,17.03
2022-09-15T21:21:08.806Z,17.06
2022-09-15T21:24:11.332Z,17.12
2022-09-15T21:27:29.633Z,17.17
2022-09-15T21:30:32.495Z,17.19
2022-09-15T21:33:35.334Z,17.29
2022-09-15T21:36:38.079Z,17.37
2022-09-15T21:39:40.282Z,17.40
2022-09-15T21:42:42.755Z,17.44
2022-09-15T21:45:45.031Z,17.43
2022-09-15T21:48:47.839Z,17.44
2022-09-15T21:51:50.254Z,17.44
2022-09-15T21:54:53.251Z,17.42
2022-09-15T21:57:55.471Z,17.39
2022-09-15T22:00:58.108Z,17.36
2022-09-15T22:04:05.595Z,17.29
2022-09-15T22:07:07.797Z,17.31
2022-09-15T22:10:12.611Z,17.35
2022-09-15T22:13:14.907Z,17.36
2022-09-15T22:16:19.201Z,17.31
2022-09-15T22:19:21.645Z,17.30
2022-09-15T22:22:24.236Z,17.26
2022-09-15T22:25:26.762Z,17.27
2022-09-15T22:28:29.221Z,17.25
2022-09-15T22:31:31.585Z,17.14
2022-09-15T22:34:34.342Z,17.09
2022-09-15T22:37:36.733Z,17.12
2022-09-15T22:40:39.345Z,17.12
2022-09-15T22:43:42.970Z,17.08
2022-09-15T22:46:45.936Z,17.19
2022-09-15T22:49:48.269Z,17.15
2022-09-15T22:52:51.913Z,17.05
2022-09-15T22:56:04.937Z,16.99
2022-09-15T22:59:07.612Z,16.96
2022-09-15T23:02:09.930Z,17.06
2022-09-15T23:05:12.852Z,17.12
2022-09-15T23:08:15.193Z,17.07
2022-09-15T23:11:17.931Z,17.08
2022-09-15T23:14:20.239Z,17.15
2022-09-15T23:17:22.947Z,17.16
2022-09-15T23:20:25.416Z,17.02
2022-09-15T23:23:28.217Z,17.01
2022-09-15T23:26:30.398Z,16.99
2022-09-15T23:29:32.865Z,16.98
2022-09-15T23:32:35.197Z,16.97
2022-09-15T23:35:37.725Z,16.98
2022-09-15T23:38:41.217Z,17.00
2022-09-15T23:41:43.902Z,17.04
2022-09-15T23:44:46.175Z,17.03
2022-09-15T23:47:48.647Z,17.08
2022-09-15T23:50:51.111Z,17.10
2022-09-15T23:53:53.710Z,17.09
2022-09-15T23:56:55.959Z,17.12
2022-09-15T23:59:58.553Z,17.07
